Time;durP1;ratioP1;P1;durP2;ratioP2;P2;SDS_P1;SDS_P2;PMS_P1;PMS_P2;Temp;Humidity;BMP_temperature;BMP_pressure;BME280_temperature;BME280_humidity;BME280_pressure;Samples;Min_cycle;Max_cycle;Signal;HPM_P1;HPM_P2
2022/09/18 00:01:47;;;;;;;2.35;1.15;;;;;;;18.45;77.88;97824.88;4984394;28;20474;-92
2022/09/18 00:04:14;;;;;;;2.15;0.95;;;;;;;18.21;77.52;97808.81;4963609;28;20042;-92
2022/09/18 00:06:41;;;;;;;2.10;1.40;;;;;;;18.28;77.71;97825.28;4975989;28;20042;-91
2022/09/18 00:09:10;;;;;;;2.05;1.20;;;;;;;18.08;78.85;97813.59;4944169;28;20049;-93
2022/09/18 00:11:40;;;;;;;4.07;1.70;;;;;;;18.18;78.81;97832.88;4943871;28;20096;-91
2022/09/18 00:14:07;;;;;;;5.90;1.73;;;;;;;18.16;78.38;97828.94;4967535;28;20051;-92
2022/09/18 00:16:34;;;;;;;3.63;1.73;;;;;;;18.09;78.79;97826.06;4972603;28;20039;-92
2022/09/18 00:18:59;;;;;;;3.72;1.50;;;;;;;18.12;78.38;97836.25;4924926;28;20035;-91
2022/09/18 00:21:28;;;;;;;2.17;1.48;;;;;;;17.97;78.77;97827.78;4956776;28;20037;-91
2022/09/18 00:23:55;;;;;;;3.03;1.50;;;;;;;18.01;79.43;97833.28;4931393;28;20108;-91
2022/09/18 00:26:21;;;;;;;2.75;1.35;;;;;;;17.91;78.63;97815.56;4943432;28;20041;-92
2022/09/18 00:28:46;;;;;;;3.28;1.33;;;;;;;18.13;78.56;97844.03;4943167;28;20034;-91
2022/09/18 00:31:14;;;;;;;1.50;0.90;;;;;;;17.96;77.94;97828.91;4943569;28;20416;-91
2022/09/18 00:33:43;;;;;;;1.02;0.82;;;;;;;18.14;77.15;97853.03;4959954;28;20420;-92
2022/09/18 00:36:10;;;;;;;1.58;0.77;;;;;;;18.10;76.95;97842.03;4995599;28;20045;-91
2022/09/18 00:38:36;;;;;;;2.00;1.20;;;;;;;17.98;78.37;97839.44;4983185;28;20377;-91
2022/09/18 00:41:04;;;;;;;5.30;1.17;;;;;;;18.01;77.94;97903.31;4982903;28;20037;-92
2022/09/18 00:43:32;;;;;;;3.22;0.80;;;;;;;18.13;76.11;97965.84;4999460;28;20503;-91
2022/09/18 00:46:13;;;;;;;2.08;0.70;;;;;;;18.11;74.14;97974.38;4999451;28;20394;-91
2022/09/18 00:49:18;;;;;;;3.88;0.80;;;;;;;18.17;69.89;97980.34;4999823;28;20025;-91
2022/09/18 00:51:45;;;;;;;0.77;0.65;;;;;;;18.29;69.83;97985.69;5033055;28;20057;-92
2022/09/18 00:54:28;;;;;;;2.60;1.00;;;;;;;18.38;71.23;98007.31;4981288;28;20037;-91
2022/09/18 00:56:56;;;;;;;4.47;2.00;;;;;;;18.27;73.16;98001.59;5016417;28;20579;-91
2022/09/18 00:59:28;;;;;;;3.42;3.00;;;;;;;18.26;73.56;98013.66;4988693;28;20041;-90
2022/09/18 01:01:54;;;;;;;3.92;2.90;;;;;;;18.19;74.40;98021.66;4980629;28;20045;-89
2022/09/18 01:04:20;;;;;;;6.07;3.00;;;;;;;18.17;74.21;98024.72;4980082;28;20034;-92
2022/09/18 01:06:52;;;;;;;3.05;2.45;;;;;;;18.16;74.87;98044.16;4963503;28;20025;-94
2022/09/18 01:09:44;;;;;;;2.20;1.88;;;;;;;17.96;71.61;98051.44;5005803;28;20044;-93
2022/09/18 01:12:34;;;;;;;4.68;2.03;;;;;;;18.00;71.98;98065.16;5032288;28;20021;-92
2022/09/18 01:15:26;;;;;;;3.10;1.90;;;;;;;17.71;72.75;98097.03;5032087;28;20025;-93
2022/09/18 01:18:06;;;;;;;2.88;2.08;;;;;;;17.68;72.88;98086.81;5015326;28;20133;-93
2022/09/18 01:20:57;;;;;;;2.75;2.20;;;;;;;17.56;72.52;98104.78;4976478;28;20034;-93
2022/09/18 01:23:57;;;;;;;3.00;1.90;;;;;;;17.58;71.87;98120.78;4976229;28;20030;-93
2022/09/18 01:26:41;;;;;;;3.08;1.52;;;;;;;17.59;71.53;98125.06;4959967;28;20057;-92
2022/09/18 01:29:31;;;;;;;4.60;1.90;;;;;;;17.43;71.94;98141.38;4976540;28;20032;-91
2022/09/18 01:32:01;;;;;;;2.40;1.92;;;;;;;17.36;72.17;98157.47;4962762;28;20033;-92
2022/09/18 01:34:54;;;;;;;2.20;2.00;;;;;;;17.41;70.77;98167.31;4998498;28;20033;-93
2022/09/18 01:37:20;;;;;;;;;;;;;;;17.24;71.01;98196.34;5032728;28;20044;-91
2022/09/18 01:40:13;;;;;;;2.83;1.95;;;;;;;17.01;70.32;98182.44;4999758;28;19944;-92
2022/09/18 01:42:39;;;;;;;3.28;2.03;;;;;;;17.06;69.42;98209.41;4992219;28;20041;-91
2022/09/18 01:45:08;;;;;;;5.55;2.00;;;;;;;16.96;68.69;98220.75;4982309;28;20140;-91
2022/09/18 01:47:50;;;;;;;2.10;1.90;;;;;;;16.83;69.31;98233.53;4998643;28;20037;-93
2022/09/18 01:50:16;;;;;;;2.35;2.00;;;;;;;16.58;71.06;98229.94;4983603;28;20510;-92
2022/09/18 01:52:53;;;;;;;2.42;1.83;;;;;;;16.74;69.57;98244.44;4999824;28;20670;-93
2022/09/18 01:55:21;;;;;;;2.55;1.80;;;;;;;16.74;69.35;98239.00;5014639;28;20048;-92
2022/09/18 01:57:54;;;;;;;2.05;1.73;;;;;;;16.71;70.76;98264.16;4986127;28;20030;-92
2022/09/18 02:00:21;;;;;;;1.70;1.60;;;;;;;16.69;70.54;98241.97;5000568;28;20029;-92
2022/09/18 02:03:04;;;;;;;2.55;1.70;;;;;;;16.78;70.26;98266.31;4966849;28;20037;-92
2022/09/18 02:05:36;;;;;;;2.67;1.90;;;;;;;16.72;70.51;98275.81;5012322;28;20504;-93
2022/09/18 02:08:16;;;;;;;1.90;1.70;;;;;;;16.54;71.32;98267.06;4983592;28;20026;-93
2022/09/18 02:10:49;;;;;;;3.88;1.92;;;;;;;16.46;71.61;98274.16;4963464;28;20026;-94
2022/09/18 02:13:16;;;;;;;2.65;2.13;;;;;;;16.55;70.08;98296.59;4948687;29;20070;-92
2022/09/18 02:15:42;;;;;;;2.90;2.20;;;;;;;16.50;71.72;98309.63;4924425;29;20042;-92
2022/09/18 02:18:11;;;;;;;2.95;2.20;;;;;;;16.47;70.97;98324.66;4940360;29;20397;-93
2022/09/18 02:20:36;;;;;;;2.88;2.53;;;;;;;16.28;72.49;98308.84;4940612;29;20058;-92
2022/09/18 02:23:04;;;;;;;2.80;2.60;;;;;;;16.20;71.95;98323.28;4941381;29;20023;-92
2022/09/18 02:25:36;;;;;;;2.90;2.60;;;;;;;16.36;70.59;98334.34;4963074;28;20226;-92
2022/09/18 02:28:04;;;;;;;2.75;1.50;;;;;;;16.26;66.41;98319.25;4979429;28;20105;-91
2022/09/18 02:30:30;;;;;;;1.25;1.15;;;;;;;16.30;64.87;98341.91;4940490;29;20078;-92
2022/09/18 02:32:55;;;;;;;1.60;1.13;;;;;;;16.19;64.81;98348.06;4925068;29;20023;-93
2022/09/18 02:35:22;;;;;;;1.27;1.10;;;;;;;16.04;66.03;98361.13;4924050;29;20042;-92
2022/09/18 02:38:01;;;;;;;1.35;0.90;;;;;;;16.19;63.98;98362.44;4924450;29;20529;-92
2022/09/18 02:40:43;;;;;;;3.25;1.00;;;;;;;16.11;64.08;98363.31;4977802;28;20041;-92
2022/09/18 02:43:31;;;;;;;0.80;0.80;;;;;;;16.07;64.30;98376.72;4979178;28;20026;-91
2022/09/18 02:46:33;;;;;;;0.98;0.85;;;;;;;16.06;64.25;98369.72;4975964;28;20023;-91
2022/09/18 02:49:13;;;;;;;1.10;0.90;;;;;;;16.01;64.93;98388.13;4983400;28;20018;-92
2022/09/18 02:51:46;;;;;;;1.42;1.00;;;;;;;15.93;65.45;98393.25;4996367;28;20065;-91
2022/09/18 02:54:23;;;;;;;1.13;1.00;;;;;;;15.96;65.29;98403.47;4971613;28;20061;-92
2022/09/18 02:56:56;;;;;;;1.10;1.00;;;;;;;15.89;66.72;98397.75;4960556;28;20035;-92
2022/09/18 02:59:35;;;;;;;2.15;1.20;;;;;;;15.94;67.20;98426.66;4949960;29;20035;-92
2022/09/18 03:02:00;;;;;;;1.73;1.35;;;;;;;15.84;66.38;98411.53;4941016;29;20027;-92
2022/09/18 03:04:26;;;;;;;1.10;1.00;;;;;;;15.62;67.62;98423.38;4934551;28;20031;-93
2022/09/18 03:06:52;;;;;;;1.70;1.40;;;;;;;15.76;67.55;98429.44;4960429;28;20412;-94
2022/09/18 03:09:19;;;;;;;1.92;1.20;;;;;;;15.78;65.60;98434.53;4953761;28;20527;-92
2022/09/18 03:11:44;;;;;;;1.25;1.10;;;;;;;15.86;65.47;98444.56;4962346;28;20389;-94
2022/09/18 03:14:10;;;;;;;1.50;1.17;;;;;;;15.85;64.21;98444.88;4966527;28;20117;-93
2022/09/18 03:16:36;;;;;;;1.45;1.08;;;;;;;15.81;63.14;98450.16;4924444;29;20036;-94
2022/09/18 03:19:03;;;;;;;0.90;0.80;;;;;;;15.67;62.73;98457.72;4923270;29;20107;-94
2022/09/18 03:21:28;;;;;;;1.27;0.82;;;;;;;15.44;63.67;98460.66;4955726;29;20023;-94
2022/09/18 03:23:54;;;;;;;1.58;0.80;;;;;;;15.46;62.15;98477.41;4929127;28;20030;-93
2022/09/18 03:26:20;;;;;;;0.88;0.50;;;;;;;15.35;60.99;98490.47;4958084;28;20058;-93
2022/09/18 03:28:46;;;;;;;0.50;0.50;;;;;;;15.23;62.25;98505.81;4947440;28;20492;-92
2022/09/18 03:31:12;;;;;;;0.50;0.45;;;;;;;15.29;61.98;98499.09;4993471;28;20026;-92
2022/09/18 03:33:38;;;;;;;0.57;0.57;;;;;;;15.15;62.71;98508.22;4969923;28;20024;-91
2022/09/18 03:36:05;;;;;;;0.60;0.50;;;;;;;15.35;61.53;98531.16;4938554;29;20046;-94
2022/09/18 03:38:31;;;;;;;0.50;0.50;;;;;;;15.14;63.01;98531.03;4928899;28;20141;-92
2022/09/18 03:40:58;;;;;;;0.65;0.52;;;;;;;15.10;62.96;98530.06;4976518;28;20034;-93
2022/09/18 03:43:25;;;;;;;0.88;0.50;;;;;;;14.94;63.00;98520.81;4974794;28;20480;-92
2022/09/18 03:45:50;;;;;;;0.90;0.38;;;;;;;15.11;60.89;98537.09;4941973;28;20046;-93
2022/09/18 03:48:16;;;;;;;1.35;0.40;;;;;;;15.08;60.82;98559.41;4958789;28;20409;-91
2022/09/18 03:50:42;;;;;;;0.30;0.30;;;;;;;14.98;60.55;98546.16;4993394;28;20026;-92
2022/09/18 03:53:07;;;;;;;0.40;0.40;;;;;;;14.85;61.49;98558.75;4977104;28;20030;-93
2022/09/18 03:55:34;;;;;;;0.30;0.30;;;;;;;15.05;60.77;98581.75;4941961;28;20026;-93
2022/09/18 03:58:01;;;;;;;1.10;0.40;;;;;;;15.22;60.62;98582.88;4942294;28;20026;-92
2022/09/18 04:00:26;;;;;;;0.40;0.40;;;;;;;15.22;60.36;98580.16;4975418;28;20421;-92
2022/09/18 04:02:53;;;;;;;1.88;0.50;;;;;;;15.07;62.44;98584.94;4960909;28;20037;-92
2022/09/18 04:05:19;;;;;;;0.70;0.40;;;;;;;14.87;61.18;98585.53;4977691;28;20412;-91
2022/09/18 04:07:44;;;;;;;1.55;0.38;;;;;;;14.99;59.03;98604.69;4961024;28;20025;-94
2022/09/18 04:10:10;;;;;;;0.30;0.30;;;;;;;14.91;58.41;98597.34;4957426;28;20063;-92
2022/09/18 04:12:35;;;;;;;0.28;0.28;;;;;;;14.78;59.76;98593.66;4934151;28;20547;-92
2022/09/18 04:15:02;;;;;;;1.30;0.38;;;;;;;14.70;60.46;98616.91;4974233;28;20052;-93
2022/09/18 04:17:28;;;;;;;0.30;0.30;;;;;;;14.58;60.75;98588.81;5016083;28;20036;-92
2022/09/18 04:19:58;;;;;;;0.28;0.28;;;;;;;14.39;60.55;98586.34;5000080;28;20025;-92
2022/09/18 04:22:26;;;;;;;0.20;0.20;;;;;;;14.50;60.77;98628.28;4983422;28;20058;-92
2022/09/18 04:24:54;;;;;;;0.20;0.20;;;;;;;14.40;61.88;98618.53;4983731;28;20068;-93
2022/09/18 04:27:22;;;;;;;0.80;0.30;;;;;;;14.37;61.23;98632.69;5000200;28;20032;-93
2022/09/18 04:29:47;;;;;;;0.40;0.28;;;;;;;14.13;62.40;98619.50;4999545;28;20029;-93
2022/09/18 04:32:13;;;;;;;1.10;0.32;;;;;;;14.28;62.79;98632.66;4999892;28;20025;-92
2022/09/18 04:34:39;;;;;;;2.03;0.65;;;;;;;14.30;61.93;98646.69;4998836;28;20041;-92
2022/09/18 04:37:06;;;;;;;0.93;0.43;;;;;;;14.30;61.83;98643.97;4983158;28;20431;-91
2022/09/18 04:39:32;;;;;;;1.75;0.30;;;;;;;14.33;62.12;98647.97;4982775;28;20072;-91
2022/09/18 04:41:58;;;;;;;0.77;0.25;;;;;;;14.18;62.41;98670.03;4999664;28;20028;-93
2022/09/18 04:44:25;;;;;;;0.40;0.30;;;;;;;14.27;60.49;98660.03;4982647;28;20025;-92
2022/09/18 04:46:51;;;;;;;0.40;0.40;;;;;;;14.37;60.67;98670.59;5033601;28;20025;-92
2022/09/18 04:49:17;;;;;;;1.25;0.40;;;;;;;14.18;62.02;98662.69;4983211;28;20032;-92
2022/09/18 04:51:45;;;;;;;1.70;0.50;;;;;;;14.19;62.38;98674.31;4999321;28;20044;-92
2022/09/18 04:54:12;;;;;;;2.92;0.68;;;;;;;14.37;62.04;98683.34;4997988;28;20056;-93
2022/09/18 04:56:38;;;;;;;0.63;0.40;;;;;;;13.97;59.94;98673.22;4999259;28;20026;-92
2022/09/18 04:59:04;;;;;;;0.63;0.60;;;;;;;14.20;59.74;98684.06;4999164;28;20052;-94
2022/09/18 05:01:30;;;;;;;0.77;0.57;;;;;;;14.25;59.05;98689.31;4998959;28;20021;-90
2022/09/18 05:03:56;;;;;;;1.10;0.77;;;;;;;14.29;60.71;98701.13;4983007;28;20017;-92
2022/09/18 05:06:23;;;;;;;0.50;0.50;;;;;;;14.13;60.96;98701.53;5015276;28;20030;-92
2022/09/18 05:08:49;;;;;;;1.30;0.63;;;;;;;14.23;59.75;98697.75;5014545;28;20048;-92
2022/09/18 05:11:16;;;;;;;0.68;0.50;;;;;;;14.25;58.72;98698.25;5015269;28;20030;-92
2022/09/18 05:13:42;;;;;;;0.80;0.70;;;;;;;14.39;58.20;98716.34;5014519;28;20396;-93
2022/09/18 05:16:11;;;;;;;0.63;0.50;;;;;;;14.22;57.92;98700.78;4999059;28;20032;-93
2022/09/18 05:18:38;;;;;;;1.70;0.65;;;;;;;14.20;57.91;98708.44;5015064;28;20033;-93
2022/09/18 05:21:05;;;;;;;0.60;0.50;;;;;;;14.17;58.74;98722.56;4999299;28;20049;-94
2022/09/18 05:23:33;;;;;;;0.60;0.60;;;;;;;14.08;59.23;98725.22;4998832;28;20114;-92
2022/09/18 05:26:00;;;;;;;1.38;0.68;;;;;;;14.23;57.72;98724.03;4982523;28;20013;-92
2022/09/18 05:28:26;;;;;;;1.27;0.73;;;;;;;14.30;59.45;98730.63;4986139;28;20116;-92
2022/09/18 05:30:56;;;;;;;1.33;0.93;;;;;;;14.23;59.20;98737.56;5019736;28;20087;-92
2022/09/18 05:33:22;;;;;;;0.63;0.60;;;;;;;14.27;58.75;98717.69;4987048;28;20483;-93
2022/09/18 05:35:52;;;;;;;0.63;0.60;;;;;;;14.35;57.99;98729.69;5003255;28;20037;-90
2022/09/18 05:38:19;;;;;;;0.90;0.70;;;;;;;14.13;58.28;98708.84;5019636;28;20036;-92
2022/09/18 05:40:46;;;;;;;1.30;0.88;;;;;;;14.49;59.27;98752.09;4986766;28;20122;-90
2022/09/18 05:43:14;;;;;;;0.95;0.68;;;;;;;14.29;58.65;98726.31;4986744;28;20436;-91
2022/09/18 05:45:39;;;;;;;1.85;0.90;;;;;;;14.41;56.22;98738.50;5001926;28;20021;-91
2022/09/18 05:48:05;;;;;;;0.82;0.75;;;;;;;14.56;57.38;98740.84;4985361;28;20042;-91
2022/09/18 05:50:32;;;;;;;1.77;0.93;;;;;;;14.49;57.96;98735.84;4966513;28;20479;-91
2022/09/18 05:53:05;;;;;;;1.55;1.00;;;;;;;14.79;57.43;98746.22;4981935;28;20041;-91
2022/09/18 05:55:33;;;;;;;1.15;0.95;;;;;;;14.77;56.69;98743.81;5018162;28;20025;-91
2022/09/18 05:58:01;;;;;;;0.90;0.80;;;;;;;14.89;55.83;98733.19;5001991;28;20522;-91
2022/09/18 06:00:31;;;;;;;2.13;1.00;;;;;;;14.89;56.08;98724.25;4999710;28;20037;-91
2022/09/18 06:03:04;;;;;;;2.70;1.00;;;;;;;14.89;56.44;98726.97;4965870;28;20508;-90
2022/09/18 06:05:31;;;;;;;2.80;1.10;;;;;;;14.85;54.75;98743.06;4985403;28;20025;-91
2022/09/18 06:08:00;;;;;;;1.95;1.45;;;;;;;15.04;54.84;98750.16;4986041;28;20079;-92
2022/09/18 06:10:26;;;;;;;0.98;0.88;;;;;;;15.04;53.83;98740.09;4985169;28;20029;-91
2022/09/18 06:13:12;;;;;;;1.63;0.93;;;;;;;15.16;54.38;98772.06;5002479;28;20050;-91
2022/09/18 06:15:38;;;;;;;2.00;1.10;;;;;;;15.03;53.37;98746.66;4964007;28;20037;-91
2022/09/18 06:18:07;;;;;;;1.40;1.00;;;;;;;15.04;53.67;98740.09;4946877;28;20405;-90
2022/09/18 06:20:33;;;;;;;1.42;0.90;;;;;;;14.87;52.67;98740.84;4963322;28;20030;-90
2022/09/18 06:22:59;;;;;;;1.33;1.05;;;;;;;14.99;54.18;98758.44;4946411;28;20030;-91
2022/09/18 06:25:25;;;;;;;1.75;1.00;;;;;;;15.12;51.55;98752.09;4982966;28;20021;-92
2022/09/18 06:27:59;;;;;;;1.30;1.10;;;;;;;14.91;52.26;98741.81;4986564;28;20495;-91
2022/09/18 06:30:32;;;;;;;1.58;1.35;;;;;;;14.93;52.04;98758.56;4967876;28;20064;-91
2022/09/18 06:33:04;;;;;;;1.50;1.20;;;;;;;15.08;53.40;98775.53;4966355;28;20029;-92
2022/09/18 06:35:31;;;;;;;2.30;1.50;;;;;;;15.07;51.29;98769.31;4984539;28;20038;-92
2022/09/18 06:38:02;;;;;;;2.55;1.88;;;;;;;15.09;52.48;98777.16;4983765;28;20398;-91
2022/09/18 06:40:31;;;;;;;1.80;1.50;;;;;;;15.18;51.85;98788.03;4985207;28;20407;-92
2022/09/18 06:42:57;;;;;;;2.97;1.38;;;;;;;15.28;50.38;98779.59;4984995;28;20030;-93
2022/09/18 06:45:23;;;;;;;3.63;1.75;;;;;;;15.52;50.01;98781.88;4985283;28;20028;-93
2022/09/18 06:47:53;;;;;;;4.55;1.83;;;;;;;15.46;51.77;98772.28;5000754;28;20025;-91
2022/09/18 06:50:21;;;;;;;2.40;1.30;;;;;;;15.67;49.24;98769.81;4968185;28;20044;-93
2022/09/18 06:52:47;;;;;;;2.13;1.65;;;;;;;15.65;50.14;98753.84;4966139;28;20018;-92
2022/09/18 06:55:13;;;;;;;1.73;1.50;;;;;;;15.78;49.96;98771.13;4981708;28;20022;-94
2022/09/18 06:57:39;;;;;;;3.28;2.10;;;;;;;15.65;49.27;98769.31;4965055;28;20120;-91
2022/09/18 07:00:05;;;;;;;2.22;1.50;;;;;;;15.64;49.37;98775.84;4996974;28;20568;-91
2022/09/18 07:02:31;;;;;;;2.45;1.65;;;;;;;15.55;50.34;98784.78;4984397;28;20091;-91
2022/09/18 07:04:57;;;;;;;1.48;1.30;;;;;;;15.79;48.09;98794.41;4984170;28;20022;-91
2022/09/18 07:07:22;;;;;;;1.60;1.38;;;;;;;15.47;47.97;98773.91;4984531;28;20396;-91
2022/09/18 07:09:48;;;;;;;1.48;1.20;;;;;;;15.70;47.92;98801.72;5017223;28;20025;-92
2022/09/18 07:12:13;;;;;;;1.73;1.30;;;;;;;15.73;47.26;98777.50;4984264;28;20037;-93
2022/09/18 07:14:39;;;;;;;1.50;1.20;;;;;;;15.88;47.58;98787.09;5000865;28;20396;-91
2022/09/18 07:17:10;;;;;;;1.50;1.20;;;;;;;15.99;46.52;98805.81;4984179;28;20025;-91
2022/09/18 07:19:36;;;;;;;2.80;1.30;;;;;;;16.01;46.12;98803.56;5002803;28;20025;-92
2022/09/18 07:22:01;;;;;;;2.15;1.40;;;;;;;16.19;47.11;98807.88;4984205;28;20044;-91
2022/09/18 07:24:27;;;;;;;1.60;1.30;;;;;;;16.31;46.07;98815.38;4984164;28;20029;-91
2022/09/18 07:26:52;;;;;;;1.58;1.35;;;;;;;16.09;47.58;98809.00;5016693;28;20028;-91
2022/09/18 07:29:18;;;;;;;1.35;1.17;;;;;;;16.25;46.62;98827.53;5000465;28;20025;-91
2022/09/18 07:31:43;;;;;;;5.07;1.80;;;;;;;16.28;47.44;98818.75;5000100;28;20030;-92
2022/09/18 07:34:10;;;;;;;2.53;1.30;;;;;;;16.35;45.81;98819.88;4984622;28;20030;-90
2022/09/18 07:36:35;;;;;;;1.65;1.42;;;;;;;16.43;46.64;98822.91;4984325;28;20025;-90
2022/09/18 07:39:01;;;;;;;1.70;1.48;;;;;;;16.56;46.27;98827.38;4992714;28;20034;-92
2022/09/18 07:41:26;;;;;;;3.58;1.45;;;;;;;16.48;45.57;98826.25;4964526;28;20022;-91
2022/09/18 07:43:52;;;;;;;1.42;1.23;;;;;;;16.46;46.88;98828.50;4970672;28;20112;-91
2022/09/18 07:46:17;;;;;;;2.90;1.52;;;;;;;16.54;46.43;98833.13;5015953;28;20033;-91
2022/09/18 07:48:43;;;;;;;3.78;1.88;;;;;;;16.34;47.16;98822.91;5016544;28;20212;-91
2022/09/18 07:51:08;;;;;;;2.22;1.70;;;;;;;16.32;47.10;98834.09;4983359;28;20083;-91
2022/09/18 07:53:36;;;;;;;2.30;1.60;;;;;;;16.41;46.20;98844.94;4983631;28;20087;-91
2022/09/18 07:56:08;;;;;;;3.65;1.45;;;;;;;16.23;45.70;98837.91;5000352;28;20090;-91
2022/09/18 07:58:34;;;;;;;3.17;1.50;;;;;;;16.28;45.73;98835.06;5000279;28;20032;-92
2022/09/18 08:01:03;;;;;;;1.65;1.40;;;;;;;16.11;45.97;98844.78;4984000;28;20037;-92
2022/09/18 08:03:29;;;;;;;1.83;1.40;;;;;;;16.22;46.45;98847.19;4981239;28;20420;-91
2022/09/18 08:05:54;;;;;;;3.85;1.88;;;;;;;15.99;47.81;98843.81;4980368;28;20022;-91
2022/09/18 08:08:20;;;;;;;3.03;1.70;;;;;;;16.15;46.95;98842.25;4965606;28;20530;-90
2022/09/18 08:10:45;;;;;;;1.85;1.38;;;;;;;16.25;46.21;98865.56;4983102;28;20029;-91
2022/09/18 08:13:12;;;;;;;2.40;1.80;;;;;;;16.03;48.00;98837.44;4968605;28;20153;-92
2022/09/18 08:15:39;;;;;;;1.45;1.20;;;;;;;16.26;45.74;98846.22;4973946;28;20026;-91
2022/09/18 08:18:05;;;;;;;1.60;1.27;;;;;;;16.41;45.37;98863.19;4941624;28;20054;-90
2022/09/18 08:20:32;;;;;;;1.50;1.23;;;;;;;16.28;46.07;98849.44;4958112;28;20030;-91
2022/09/18 08:22:57;;;;;;;1.88;1.30;;;;;;;16.48;46.04;98860.78;4941542;28;20031;-92
2022/09/18 08:25:23;;;;;;;1.33;1.10;;;;;;;16.55;44.90;98863.81;4941300;28;20085;-91
2022/09/18 08:27:48;;;;;;;1.58;1.10;;;;;;;16.41;44.49;98846.88;4957439;28;20382;-92
2022/09/18 08:30:15;;;;;;;1.63;1.30;;;;;;;16.31;45.03;98856.97;4974502;28;20033;-91
2022/09/18 08:32:40;;;;;;;1.60;1.15;;;;;;;16.53;44.18;98857.91;4959840;28;20440;-92
2022/09/18 08:35:06;;;;;;;1.92;1.55;;;;;;;16.50;45.48;98848.47;4942045;29;20078;-90
2022/09/18 08:37:32;;;;;;;2.00;1.80;;;;;;;16.49;45.88;98852.31;4953543;29;20024;-90
2022/09/18 08:39:58;;;;;;;2.67;1.50;;;;;;;16.74;45.62;98869.72;4951766;28;20029;-90
2022/09/18 08:42:39;;;;;;;1.50;1.23;;;;;;;16.92;45.87;98865.09;4976208;28;20093;-93
2022/09/18 08:45:10;;;;;;;2.05;1.38;;;;;;;16.77;45.21;98854.69;4977432;28;20176;-92
2022/09/18 08:47:42;;;;;;;1.92;1.20;;;;;;;17.00;44.37;98846.38;4972659;28;20035;-91
2022/09/18 08:50:14;;;;;;;2.05;1.20;;;;;;;17.14;42.90;98845.03;4957340;28;20030;-91
2022/09/18 08:52:40;;;;;;;;;;;;;;;17.20;43.33;98863.91;4961508;28;20026;-91
2022/09/18 08:55:26;;;;;;;1.25;1.13;;;;;;;17.39;42.60;98869.78;4960794;28;19974;-92
2022/09/18 08:58:04;;;;;;;1.30;1.10;;;;;;;17.18;42.16;98842.44;4957892;28;20037;-91
2022/09/18 09:00:33;;;;;;;1.88;1.20;;;;;;;17.43;42.79;98864.44;4960344;28;20492;-91
2022/09/18 09:03:24;;;;;;;1.58;1.30;;;;;;;17.33;41.86;98860.19;4964296;28;20049;-93
2022/09/18 09:06:26;;;;;;;2.20;1.40;;;;;;;17.39;42.84;98850.72;4958817;29;20034;-91
2022/09/18 09:09:15;;;;;;;4.90;1.60;;;;;;;17.42;42.45;98841.09;4969052;28;20018;-92
2022/09/18 09:11:55;;;;;;;2.97;1.20;;;;;;;17.54;42.52;98857.53;4981521;28;20022;-91
2022/09/18 09:14:48;;;;;;;1.77;1.23;;;;;;;17.62;41.29;98845.00;4970270;28;20042;-91
2022/09/18 09:17:26;;;;;;;;;;;;;;;17.53;42.60;98864.88;4963484;28;20481;-92
2022/09/18 09:19:56;;;;;;;1.25;1.10;;;;;;;17.43;41.42;98842.69;4978697;28;19918;-92
2022/09/18 09:23:00;;;;;;;1.40;1.10;;;;;;;17.73;41.04;98873.44;4926109;29;20031;-92
2022/09/18 09:25:38;;;;;;;1.92;1.20;;;;;;;17.68;41.24;98863.56;4976526;28;20039;-93
2022/09/18 09:28:10;;;;;;;2.92;1.27;;;;;;;17.80;41.10;98868.28;4979872;28;20037;-92
2022/09/18 09:30:35;;;;;;;1.83;1.17;;;;;;;17.72;41.50;98858.22;4973248;28;20126;-93
2022/09/18 09:33:14;;;;;;;1.70;1.30;;;;;;;17.68;41.16;98860.00;4940835;29;20174;-92
2022/09/18 09:35:41;;;;;;;1.70;1.20;;;;;;;17.82;41.73;98879.63;4941545;29;20031;-92
2022/09/18 09:38:22;;;;;;;1.88;1.13;;;;;;;17.80;40.60;98876.44;4956772;29;20466;-92
2022/09/18 09:40:49;;;;;;;1.05;0.90;;;;;;;17.63;40.88;98861.00;4957289;29;20063;-93
2022/09/18 09:43:19;;;;;;;1.63;1.30;;;;;;;17.79;40.90;98858.53;4943403;28;20046;-91
2022/09/18 09:46:10;;;;;;;1.88;1.30;;;;;;;17.82;39.89;98868.75;4980070;28;20464;-91
2022/09/18 09:49:01;;;;;;;1.55;1.45;;;;;;;17.78;40.14;98893.13;4962623;28;20026;-91
2022/09/18 09:51:49;;;;;;;1.70;1.27;;;;;;;17.77;40.75;98877.91;4964614;28;20045;-91
2022/09/18 09:54:15;;;;;;;1.75;1.20;;;;;;;17.85;40.64;98856.44;4971111;28;20072;-92
2022/09/18 09:56:50;;;;;;;1.45;1.10;;;;;;;18.12;39.82;98885.13;4926704;28;20035;-92
2022/09/18 09:59:30;;;;;;;1.40;1.30;;;;;;;18.06;39.68;98867.38;4958978;28;20054;-90
2022/09/18 10:02:16;;;;;;;1.83;1.35;;;;;;;17.85;39.85;98849.06;4975172;28;20039;-90
2022/09/18 10:04:56;;;;;;;1.60;1.08;;;;;;;18.11;39.06;98884.31;4973440;28;20061;-92
2022/09/18 10:07:23;;;;;;;1.40;1.30;;;;;;;18.23;39.15;98880.06;4962049;28;20504;-92
2022/09/18 10:10:19;;;;;;;1.40;1.30;;;;;;;18.23;39.17;98897.22;4961735;28;20493;-91
2022/09/18 10:12:50;;;;;;;1.85;1.20;;;;;;;18.27;39.30;98881.81;4990802;28;20052;-90
2022/09/18 10:15:19;;;;;;;3.65;1.50;;;;;;;18.23;40.05;98885.53;4983323;28;20140;-92
2022/09/18 10:17:44;;;;;;;4.63;1.20;;;;;;;18.00;39.06;98855.06;4997496;28;20084;-90
2022/09/18 10:20:14;;;;;;;2.85;1.63;;;;;;;18.08;40.02;98848.78;4996866;28;20504;-92
2022/09/18 10:22:40;;;;;;;1.92;1.50;;;;;;;18.15;39.66;98836.19;5002034;28;20033;-91
2022/09/18 10:25:16;;;;;;;1.85;1.48;;;;;;;18.19;40.31;98852.69;5001234;28;20056;-92
2022/09/18 10:27:41;;;;;;;1.83;1.52;;;;;;;18.16;39.24;98870.50;4985475;28;20026;-91
2022/09/18 10:30:13;;;;;;;2.30;1.35;;;;;;;18.20;38.70;98870.66;5001115;28;20545;-91
2022/09/18 10:32:42;;;;;;;3.60;1.60;;;;;;;18.27;39.78;98867.38;5001702;28;20091;-91
2022/09/18 10:35:27;;;;;;;1.45;1.35;;;;;;;18.49;39.48;98872.50;5002474;28;20443;-91
2022/09/18 10:37:53;;;;;;;1.20;1.10;;;;;;;18.44;38.19;98872.69;5001780;28;20071;-92
2022/09/18 10:40:32;;;;;;;2.83;1.02;;;;;;;18.31;39.30;98851.97;4964235;28;20034;-91
2022/09/18 10:42:58;;;;;;;3.13;1.60;;;;;;;18.43;39.72;98860.22;4962337;28;20034;-94
2022/09/18 10:45:28;;;;;;;1.52;1.33;;;;;;;18.39;38.83;98840.19;4962590;28;20030;-91
2022/09/18 10:48:15;;;;;;;1.30;1.20;;;;;;;18.48;38.28;98851.81;4946469;28;20407;-90
2022/09/18 10:50:52;;;;;;;1.85;1.45;;;;;;;18.53;38.42;98875.34;4979772;28;20026;-90
2022/09/18 10:53:30;;;;;;;2.10;1.40;;;;;;;18.62;39.42;98888.94;4981062;28;20034;-92
2022/09/18 10:56:02;;;;;;;1.77;1.10;;;;;;;18.49;37.99;98852.59;5017688;28;20065;-92
2022/09/18 10:58:29;;;;;;;1.80;0.80;;;;;;;18.63;37.73;98860.50;4985061;28;20117;-92
2022/09/18 11:01:02;;;;;;;4.20;1.55;;;;;;;18.61;39.34;98863.56;4984581;28;20034;-92
2022/09/18 11:03:41;;;;;;;2.45;1.10;;;;;;;18.68;37.75;98887.59;4985003;28;20025;-93
2022/09/18 11:06:23;;;;;;;1.52;1.20;;;;;;;18.63;38.63;98860.50;5017094;28;20117;-93
2022/09/18 11:08:51;;;;;;;2.55;1.10;;;;;;;18.64;38.33;98864.84;5001216;28;20025;-91
2022/09/18 11:11:28;;;;;;;1.23;1.10;;;;;;;18.73;38.72;98862.81;4984341;28;20029;-93
2022/09/18 11:14:15;;;;;;;1.52;1.00;;;;;;;18.86;37.73;98880.06;4984522;28;20419;-93
2022/09/18 11:16:46;;;;;;;1.95;1.40;;;;;;;18.86;37.60;98882.78;4985717;28;20059;-91
2022/09/18 11:19:29;;;;;;;0.85;0.80;;;;;;;19.01;36.54;98884.91;4984398;28;20044;-94
2022/09/18 11:21:55;;;;;;;1.02;0.90;;;;;;;18.96;37.99;98901.47;5002380;28;20025;-92
2022/09/18 11:24:34;;;;;;;1.15;0.73;;;;;;;18.88;37.00;98889.50;4973797;28;20033;-93
2022/09/18 11:27:01;;;;;;;1.40;0.85;;;;;;;18.83;36.10;98880.75;4965088;28;20053;-92
2022/09/18 11:29:31;;;;;;;0.70;0.70;;;;;;;18.76;36.23;98876.59;4981170;28;20029;-91
2022/09/18 11:32:20;;;;;;;0.70;0.70;;;;;;;18.72;36.14;98875.69;4965125;28;20026;-92
2022/09/18 11:34:51;;;;;;;1.88;1.13;;;;;;;18.70;36.44;98867.03;5009773;28;20068;-91
2022/09/18 11:37:27;;;;;;;1.65;1.02;;;;;;;18.74;36.93;98867.16;4999942;28;20392;-92
2022/09/18 11:39:57;;;;;;;1.10;0.90;;;;;;;18.81;36.46;98872.09;4999772;28;20029;-93
2022/09/18 11:42:24;;;;;;;1.48;1.00;;;;;;;19.00;36.88;98901.59;5000087;28;20030;-92
2022/09/18 11:44:49;;;;;;;1.15;1.00;;;;;;;18.88;36.63;98880.53;4983750;28;20037;-91
2022/09/18 11:47:33;;;;;;;1.23;1.00;;;;;;;18.95;36.01;98905.34;4984359;28;20033;-95
2022/09/18 11:50:16;;;;;;;1.20;0.90;;;;;;;19.09;35.89;98902.31;5015772;28;20530;-91
2022/09/18 11:52:53;;;;;;;1.52;1.05;;;;;;;18.97;36.58;98892.16;4984229;28;20060;-91